Time;durP1;ratioP1;P1;durP2;ratioP2;P2;SDS_P1;SDS_P2;PMS_P1;PMS_P2;Temp;Humidity;BMP_temperature;BMP_pressure;BME280_temperature;BME280_humidity;BME280_pressure;Samples;Min_cycle;Max_cycle;Signal;HPM_P1;HPM_P2
2022/10/26 00:01:25;;;;;;;12.73;8.23;;;10.20;99.90;;;;;;5063206;28;20048;-70
2022/10/26 00:03:51;;;;;;;11.25;7.45;;;10.10;99.90;;;;;;5045636;28;20059;-69
2022/10/26 00:06:19;;;;;;;12.35;7.80;;;10.00;99.90;;;;;;5018395;28;20116;-69
2022/10/26 00:08:45;;;;;;;9.93;7.53;;;9.90;99.90;;;;;;5084918;28;20048;-69
2022/10/26 00:11:12;;;;;;;10.05;7.38;;;9.90;99.90;;;;;;5079259;28;20033;-69
2022/10/26 00:13:39;;;;;;;9.85;7.85;;;9.90;99.90;;;;;;5082608;28;20048;-69
2022/10/26 00:16:13;;;;;;;11.75;8.52;;;9.90;99.90;;;;;;5068360;28;20618;-69
2022/10/26 00:18:39;;;;;;;11.30;8.45;;;9.80;99.90;;;;;;5084173;28;20055;-69
2022/10/26 00:21:06;;;;;;;9.63;7.38;;;9.90;99.90;;;;;;5067806;28;20040;-69
2022/10/26 00:23:32;;;;;;;14.93;8.25;;;9.80;99.90;;;;;;5032522;28;20045;-69
2022/10/26 00:25:58;;;;;;;10.80;7.53;;;9.80;99.90;;;;;;5036973;28;20048;-70
2022/10/26 00:28:24;;;;;;;10.32;7.70;;;9.80;99.90;;;;;;5056483;28;20472;-69
2022/10/26 00:30:50;;;;;;;13.55;7.68;;;9.70;99.90;;;;;;5087916;28;20056;-69
2022/10/26 00:33:16;;;;;;;12.02;8.80;;;9.50;99.90;;;;;;5038496;28;20745;-69
2022/10/26 00:35:41;;;;;;;14.13;8.95;;;9.60;99.90;;;;;;5085405;28;20087;-70
2022/10/26 00:38:07;;;;;;;11.88;7.80;;;9.50;99.90;;;;;;5029173;28;20053;-69
2022/10/26 00:40:33;;;;;;;12.90;7.30;;;9.30;99.90;;;;;;5092812;28;20044;-69
2022/10/26 00:43:00;;;;;;;9.50;7.25;;;9.10;99.90;;;;;;5038241;28;20049;-69
2022/10/26 00:45:28;;;;;;;9.85;6.68;;;8.90;99.90;;;;;;5066644;28;20041;-69
2022/10/26 00:48:08;;;;;;;8.45;6.57;;;8.80;99.90;;;;;;5051101;28;20056;-69
2022/10/26 00:50:38;;;;;;;9.27;6.25;;;8.80;99.90;;;;;;5077507;28;20048;-69
2022/10/26 00:53:05;;;;;;;9.98;6.45;;;8.60;99.90;;;;;;5061344;28;20086;-69
2022/10/26 00:55:39;;;;;;;8.90;7.75;;;8.50;99.90;;;;;;5103116;28;20058;-69
2022/10/26 00:58:07;;;;;;;11.07;6.97;;;8.50;99.90;;;;;;5083347;28;20048;-69
2022/10/26 01:00:33;;;;;;;10.23;6.82;;;8.50;99.90;;;;;;5069104;28;20087;-69
2022/10/26 01:03:03;;;;;;;13.23;9.50;;;8.50;99.90;;;;;;5053967;28;20052;-69
2022/10/26 01:05:30;;;;;;;13.18;8.75;;;8.60;99.90;;;;;;5085954;28;20052;-69
2022/10/26 01:07:57;;;;;;;17.15;10.85;;;8.70;99.90;;;;;;5083958;28;20056;-69
2022/10/26 01:10:26;;;;;;;18.15;11.52;;;8.70;99.90;;;;;;5055188;28;20049;-69
2022/10/26 01:12:53;;;;;;;15.18;12.20;;;8.80;99.90;;;;;;5054568;28;20358;-69
2022/10/26 01:15:22;;;;;;;21.58;13.75;;;9.00;99.90;;;;;;5083155;28;20043;-69
2022/10/26 01:17:54;;;;;;;17.40;13.13;;;9.10;99.90;;;;;;5060679;28;20154;-69
2022/10/26 01:20:37;;;;;;;25.33;13.60;;;9.20;99.90;;;;;;5072225;28;20049;-69
2022/10/26 01:23:24;;;;;;;17.27;12.40;;;9.30;99.90;;;;;;5067431;28;20517;-69
2022/10/26 01:26:08;;;;;;;18.52;12.38;;;9.40;99.90;;;;;;5091477;28;20048;-69
2022/10/26 01:29:06;;;;;;;28.25;12.88;;;9.40;99.90;;;;;;5055633;28;20052;-69
2022/10/26 01:31:46;;;;;;;16.95;12.73;;;9.50;99.90;;;;;;5012769;28;20053;-69
2022/10/26 01:34:23;;;;;;;19.65;12.57;;;9.60;99.90;;;;;;5030241;28;20053;-69
2022/10/26 01:36:59;;;;;;;17.13;13.15;;;9.70;99.90;;;;;;4977525;28;20057;-69
2022/10/26 01:39:44;;;;;;;17.95;12.30;;;9.70;99.90;;;;;;5005029;28;20080;-70
2022/10/26 01:42:14;;;;;;;16.50;11.88;;;9.70;99.90;;;;;;5011113;28;20041;-69
2022/10/26 01:44:46;;;;;;;15.95;11.50;;;9.70;99.90;;;;;;5003730;28;20264;-69
2022/10/26 01:47:14;;;;;;;16.35;11.68;;;9.60;99.90;;;;;;5017028;28;20095;-69
2022/10/26 01:49:49;;;;;;;22.85;12.80;;;9.60;99.90;;;;;;5019235;28;20076;-69
2022/10/26 01:52:17;;;;;;;19.73;12.60;;;9.60;99.90;;;;;;5005789;28;20103;-69
2022/10/26 01:54:43;;;;;;;20.38;12.85;;;9.70;99.90;;;;;;5023678;28;20593;-69
2022/10/26 01:57:13;;;;;;;18.75;13.13;;;9.60;99.90;;;;;;5010445;28;20045;-69
2022/10/26 01:59:59;;;;;;;19.48;12.07;;;9.70;99.90;;;;;;5002254;28;20045;-69
2022/10/26 02:02:30;;;;;;;19.05;13.82;;;9.70;99.90;;;;;;5003621;28;20057;-69
2022/10/26 02:05:15;;;;;;;18.95;12.20;;;9.70;99.90;;;;;;5026175;28;20084;-69
2022/10/26 02:07:56;;;;;;;18.67;13.82;;;9.80;99.90;;;;;;5034891;28;20094;-69
2022/10/26 02:10:40;;;;;;;23.52;14.15;;;9.80;99.90;;;;;;5080736;28;20045;-69
2022/10/26 02:13:18;;;;;;;23.55;13.85;;;9.80;99.90;;;;;;5067052;28;20070;-69
2022/10/26 02:16:03;;;;;;;16.52;12.73;;;9.70;99.90;;;;;;5082600;28;20572;-69
2022/10/26 02:18:53;;;;;;;19.02;12.52;;;9.80;99.90;;;;;;5028165;28;20109;-69
2022/10/26 02:21:24;;;;;;;16.70;13.18;;;9.80;99.90;;;;;;5058960;28;20068;-70
2022/10/26 02:23:54;;;;;;;17.65;13.50;;;9.80;99.90;;;;;;5058657;28;20055;-70
2022/10/26 02:26:23;;;;;;;20.53;13.73;;;9.80;99.90;;;;;;5070233;28;20056;-70
2022/10/26 02:28:53;;;;;;;20.90;13.15;;;9.80;99.90;;;;;;5071459;28;20295;-69
2022/10/26 02:31:19;;;;;;;20.73;13.80;;;9.80;99.90;;;;;;5055919;28;20092;-69
2022/10/26 02:33:49;;;;;;;21.40;14.48;;;9.90;99.90;;;;;;5064415;28;20098;-69
2022/10/26 02:36:28;;;;;;;18.98;14.00;;;9.90;99.90;;;;;;5063520;28;20113;-69
2022/10/26 02:38:56;;;;;;;23.35;15.07;;;9.90;99.90;;;;;;5055933;28;20090;-69
2022/10/26 02:41:23;;;;;;;20.95;15.68;;;9.90;99.90;;;;;;5070082;28;20040;-69
2022/10/26 02:43:59;;;;;;;22.95;15.50;;;9.90;99.90;;;;;;5081886;28;20048;-70
2022/10/26 02:46:26;;;;;;;22.05;15.18;;;10.00;99.90;;;;;;5075733;28;20656;-69
2022/10/26 02:48:52;;;;;;;22.98;14.57;;;10.00;99.90;;;;;;5045461;28;20060;-69
2022/10/26 02:51:38;;;;;;;21.60;15.60;;;10.00;99.90;;;;;;5057258;28;20079;-69
2022/10/26 02:54:07;;;;;;;20.73;15.40;;;10.00;99.90;;;;;;5064727;28;20056;-69
2022/10/26 02:56:42;;;;;;;21.08;15.10;;;9.90;99.90;;;;;;5054473;28;20036;-69
2022/10/26 02:59:10;;;;;;;23.10;15.35;;;9.90;99.90;;;;;;5070186;28;20079;-69
2022/10/26 03:01:36;;;;;;;21.95;15.75;;;9.90;99.90;;;;;;5070370;28;20050;-69
2022/10/26 03:04:02;;;;;;;21.50;15.80;;;9.90;99.90;;;;;;5088974;28;20624;-69
2022/10/26 03:06:28;;;;;;;22.42;15.02;;;10.00;99.90;;;;;;5062575;28;20575;-69
2022/10/26 03:08:53;;;;;;;21.58;16.80;;;10.00;99.90;;;;;;5100044;28;20108;-69
2022/10/26 03:11:19;;;;;;;20.70;15.55;;;10.00;99.90;;;;;;5067312;28;20102;-69
2022/10/26 03:13:45;;;;;;;21.50;16.67;;;10.00;99.90;;;;;;5088010;28;20056;-69
2022/10/26 03:16:10;;;;;;;26.60;16.77;;;10.10;99.90;;;;;;5067136;28;20052;-69
2022/10/26 03:18:36;;;;;;;20.48;15.45;;;10.00;99.90;;;;;;5072840;28;20784;-69
2022/10/26 03:21:02;;;;;;;27.30;17.17;;;10.00;99.90;;;;;;5065838;28;20121;-69
2022/10/26 03:23:28;;;;;;;25.08;17.08;;;10.00;99.90;;;;;;5054424;28;20059;-69
2022/10/26 03:25:57;;;;;;;23.98;16.30;;;10.00;99.90;;;;;;5081023;28;20129;-69
2022/10/26 03:28:23;;;;;;;27.98;17.38;;;10.00;99.90;;;;;;5053553;28;20045;-69
2022/10/26 03:30:49;;;;;;;24.83;16.35;;;10.00;99.90;;;;;;5045607;28;20055;-69
2022/10/26 03:33:15;;;;;;;24.50;16.60;;;10.00;99.90;;;;;;5088589;28;20044;-69
2022/10/26 03:35:40;;;;;;;22.58;16.83;;;10.00;99.90;;;;;;5067553;28;20071;-69
2022/10/26 03:38:06;;;;;;;22.58;16.85;;;10.00;99.90;;;;;;5072121;28;20047;-69
2022/10/26 03:40:32;;;;;;;27.73;17.25;;;10.00;99.90;;;;;;5065956;28;20064;-69
2022/10/26 03:42:58;;;;;;;25.42;17.80;;;10.10;99.90;;;;;;5061387;28;20110;-69
2022/10/26 03:45:23;;;;;;;23.60;17.20;;;10.00;99.90;;;;;;5059350;28;20059;-69
2022/10/26 03:47:49;;;;;;;25.88;16.52;;;10.10;99.90;;;;;;5071946;28;20055;-69
2022/10/26 03:50:17;;;;;;;26.20;18.23;;;10.10;99.90;;;;;;5071611;28;20572;-69
2022/10/26 03:52:43;;;;;;;26.65;18.70;;;10.00;99.90;;;;;;5062907;28;20060;-69
2022/10/26 03:55:09;;;;;;;26.70;17.60;;;10.00;99.90;;;;;;5076883;28;20071;-69
2022/10/26 03:57:44;;;;;;;24.50;17.08;;;10.00;99.90;;;;;;5040584;28;20127;-69
2022/10/26 04:00:14;;;;;;;25.75;17.55;;;10.00;99.90;;;;;;5058752;28;20040;-69
2022/10/26 04:02:40;;;;;;;27.30;16.55;;;10.00;99.90;;;;;;5048438;28;20071;-69
2022/10/26 04:05:07;;;;;;;27.70;17.23;;;9.90;99.90;;;;;;5055444;28;20045;-69
2022/10/26 04:07:32;;;;;;;24.10;17.35;;;9.90;99.90;;;;;;5032915;28;20040;-69
2022/10/26 04:09:58;;;;;;;25.35;17.80;;;9.90;99.90;;;;;;5055926;28;20068;-69
2022/10/26 04:12:24;;;;;;;22.75;16.70;;;9.80;99.90;;;;;;5068499;28;20062;-69
2022/10/26 04:14:50;;;;;;;23.48;17.02;;;9.80;99.90;;;;;;5099663;28;20032;-69
2022/10/26 04:17:15;;;;;;;23.55;17.13;;;9.70;99.90;;;;;;5065335;28;20076;-69
2022/10/26 04:19:41;;;;;;;24.65;16.88;;;9.70;99.90;;;;;;5078136;28;20696;-70
2022/10/26 04:22:07;;;;;;;25.08;16.63;;;9.60;99.90;;;;;;5078562;28;20086;-69
2022/10/26 04:24:32;;;;;;;23.88;16.98;;;9.70;99.90;;;;;;5062651;28;20049;-69
2022/10/26 04:26:58;;;;;;;30.23;18.80;;;9.60;99.90;;;;;;5065101;28;20064;-69
2022/10/26 04:29:24;;;;;;;23.15;16.02;;;9.70;99.90;;;;;;5071351;28;20048;-69
2022/10/26 04:31:49;;;;;;;25.70;17.42;;;9.60;99.90;;;;;;5090464;28;20575;-69
2022/10/26 04:34:15;;;;;;;28.83;17.25;;;9.60;99.90;;;;;;5053720;28;20084;-69
2022/10/26 04:36:41;;;;;;;27.00;17.58;;;9.60;99.90;;;;;;5062600;28;20056;-69
2022/10/26 04:39:06;;;;;;;29.35;18.42;;;9.60;99.90;;;;;;5059574;28;20135;-69
2022/10/26 04:41:32;;;;;;;25.80;18.00;;;9.70;99.90;;;;;;5059901;28;20098;-69
2022/10/26 04:43:58;;;;;;;25.60;17.58;;;9.70;99.90;;;;;;5071317;28;20048;-69
2022/10/26 04:46:24;;;;;;;22.80;16.35;;;9.70;99.90;;;;;;5068934;28;20052;-69
2022/10/26 04:48:49;;;;;;;23.23;16.73;;;9.80;99.90;;;;;;5049827;28;20050;-69
2022/10/26 04:51:15;;;;;;;26.40;18.13;;;9.80;99.90;;;;;;5072541;28;20052;-69
2022/10/26 04:53:41;;;;;;;26.90;16.90;;;9.90;99.90;;;;;;5078220;28;20135;-69
2022/10/26 04:56:07;;;;;;;25.65;17.40;;;9.90;99.90;;;;;;5070615;28;20087;-69
2022/10/26 04:58:33;;;;;;;25.98;16.23;;;9.90;99.90;;;;;;5049547;28;20075;-69
2022/10/26 05:01:00;;;;;;;28.20;17.52;;;10.00;99.90;;;;;;5068190;28;20146;-69
2022/10/26 05:03:26;;;;;;;21.88;16.77;;;9.90;99.90;;;;;;5047406;28;20143;-69
2022/10/26 05:05:52;;;;;;;28.58;18.52;;;10.00;99.90;;;;;;5059705;28;20049;-69
2022/10/26 05:08:17;;;;;;;24.55;16.63;;;10.00;99.90;;;;;;5054127;28;20075;-68
2022/10/26 05:10:48;;;;;;;23.90;16.38;;;10.00;99.90;;;;;;5061009;28;20610;-69
2022/10/26 05:13:14;;;;;;;25.55;16.60;;;10.00;99.90;;;;;;5033963;28;20052;-69
2022/10/26 05:15:40;;;;;;;27.05;16.65;;;10.10;99.90;;;;;;5072801;28;20059;-69
2022/10/26 05:18:07;;;;;;;22.17;15.93;;;10.10;99.90;;;;;;5072572;28;20080;-69
2022/10/26 05:20:34;;;;;;;26.27;16.02;;;10.10;99.90;;;;;;5075625;28;20049;-69
2022/10/26 05:23:02;;;;;;;27.48;17.42;;;10.10;99.90;;;;;;5068657;28;20055;-69
2022/10/26 05:25:30;;;;;;;25.65;17.77;;;10.10;99.90;;;;;;5082051;28;20470;-69
2022/10/26 05:28:04;;;;;;;25.50;16.20;;;10.20;99.90;;;;;;5040285;28;20087;-69
2022/10/26 05:30:31;;;;;;;22.40;15.02;;;10.10;99.90;;;;;;5089254;28;20047;-68
2022/10/26 05:32:59;;;;;;;24.95;16.42;;;10.10;99.90;;;;;;5019715;28;20064;-65
2022/10/26 05:35:25;;;;;;;20.75;16.27;;;10.10;99.90;;;;;;5080563;28;20100;-66
2022/10/26 05:37:52;;;;;;;25.05;17.80;;;10.10;99.90;;;;;;5044277;28;20044;-65
2022/10/26 05:40:18;;;;;;;25.80;16.63;;;10.00;99.90;;;;;;5079182;28;20060;-65
2022/10/26 05:42:44;;;;;;;24.60;16.58;;;10.10;99.90;;;;;;5051332;28;20060;-63
2022/10/26 05:45:11;;;;;;;27.95;16.77;;;10.10;99.90;;;;;;5027734;28;20070;-70
2022/10/26 05:47:40;;;;;;;22.88;16.35;;;10.10;99.90;;;;;;5065957;28;20048;-72
2022/10/26 05:50:08;;;;;;;21.70;15.82;;;10.10;99.90;;;;;;5069113;28;20045;-72
2022/10/26 05:52:47;;;;;;;24.40;15.52;;;10.00;99.90;;;;;;5086830;28;20047;-72
2022/10/26 05:55:15;;;;;;;21.63;16.35;;;10.00;99.90;;;;;;5068857;28;20056;-71
2022/10/26 05:57:41;;;;;;;25.58;16.95;;;10.00;99.90;;;;;;5068833;28;20048;-71
2022/10/26 06:00:27;;;;;;;23.60;14.57;;;10.10;99.90;;;;;;5079459;28;20049;-72
2022/10/26 06:03:05;;;;;;;25.17;15.60;;;10.00;99.90;;;;;;5065522;28;20051;-72
2022/10/26 06:05:40;;;;;;;23.85;16.33;;;10.10;99.90;;;;;;5070215;28;20054;-70
2022/10/26 06:08:10;;;;;;;23.02;15.60;;;10.10;99.90;;;;;;5065366;28;20044;-71
2022/10/26 06:10:37;;;;;;;21.08;13.93;;;10.10;99.90;;;;;;5084400;28;20037;-71
2022/10/26 06:13:02;;;;;;;25.45;15.55;;;10.10;99.90;;;;;;5084789;28;20044;-72
2022/10/26 06:15:32;;;;;;;23.90;15.05;;;10.20;99.90;;;;;;5066645;28;20060;-71
2022/10/26 06:18:37;;;;;;;20.60;14.50;;;10.20;99.90;;;;;;5081182;28;20048;-69
2022/10/26 06:21:25;;;;;;;20.75;15.32;;;10.20;99.90;;;;;;5057026;28;20098;-65
2022/10/26 06:24:00;;;;;;;19.15;13.85;;;10.20;99.90;;;;;;5056527;28;20048;-64
2022/10/26 06:26:25;;;;;;;22.60;14.52;;;10.20;99.90;;;;;;5069959;28;20514;-65
2022/10/26 06:29:10;;;;;;;19.02;13.80;;;10.20;99.90;;;;;;5070713;28;20052;-65
2022/10/26 06:31:35;;;;;;;19.27;12.50;;;10.30;99.90;;;;;;5069731;28;20052;-65
2022/10/26 06:34:02;;;;;;;25.13;13.55;;;10.30;99.90;;;;;;5077762;28;20044;-66
2022/10/26 06:36:29;;;;;;;21.33;13.70;;;10.30;99.90;;;;;;5075338;28;20047;-67
2022/10/26 06:39:04;;;;;;;21.27;13.70;;;10.40;99.90;;;;;;5061393;28;20563;-66
2022/10/26 06:41:32;;;;;;;19.65;13.88;;;10.40;99.90;;;;;;5044490;28;20481;-67
2022/10/26 06:43:57;;;;;;;18.08;13.40;;;10.40;99.90;;;;;;5071815;28;20064;-65
2022/10/26 06:46:23;;;;;;;20.35;13.82;;;10.40;99.90;;;;;;5055320;28;20056;-65
2022/10/26 06:49:07;;;;;;;22.23;14.57;;;10.40;99.90;;;;;;5076737;28;20361;-66
2022/10/26 06:51:44;;;;;;;21.10;13.52;;;10.40;99.90;;;;;;5066238;28;20532;-65
2022/10/26 06:54:20;;;;;;;17.92;12.52;;;10.50;99.90;;;;;;5062296;28;20043;-65
2022/10/26 06:56:46;;;;;;;20.50;12.95;;;10.50;99.90;;;;;;5050507;28;20051;-65
2022/10/26 06:59:18;;;;;;;18.98;12.68;;;10.50;99.90;;;;;;5064239;28;20107;-65
2022/10/26 07:01:44;;;;;;;20.75;13.07;;;10.50;99.90;;;;;;5076287;28;20109;-65
2022/10/26 07:04:10;;;;;;;17.45;11.85;;;10.50;99.90;;;;;;5090171;28;20066;-65
2022/10/26 07:06:35;;;;;;;16.92;11.65;;;10.50;99.90;;;;;;5058366;28;20049;-65
2022/10/26 07:09:01;;;;;;;21.92;12.55;;;10.50;99.90;;;;;;5061747;28;20052;-65
2022/10/26 07:11:27;;;;;;;17.70;11.65;;;10.50;99.90;;;;;;5078291;28;20080;-66
2022/10/26 07:13:52;;;;;;;16.10;11.43;;;10.40;99.90;;;;;;5075878;28;20140;-66
2022/10/26 07:16:19;;;;;;;16.08;12.93;;;10.50;99.90;;;;;;5083286;28;20032;-67
2022/10/26 07:18:45;;;;;;;21.25;12.30;;;10.50;99.90;;;;;;5051997;28;20134;-64
2022/10/26 07:21:11;;;;;;;16.63;11.82;;;10.40;99.90;;;;;;5066768;28;20055;-65
2022/10/26 07:23:36;;;;;;;17.92;12.20;;;10.50;99.90;;;;;;5061901;28;20052;-64
2022/10/26 07:26:02;;;;;;;20.58;11.77;;;10.50;99.90;;;;;;5083398;28;20075;-65
2022/10/26 07:28:28;;;;;;;16.42;11.85;;;10.50;99.90;;;;;;5046409;28;20063;-65
2022/10/26 07:30:53;;;;;;;16.40;12.07;;;10.50;99.90;;;;;;5066686;28;20066;-65
2022/10/26 07:33:19;;;;;;;18.38;11.18;;;10.50;99.90;;;;;;5062127;28;20086;-66
2022/10/26 07:35:45;;;;;;;18.63;11.23;;;10.50;99.90;;;;;;5070770;28;20062;-64
2022/10/26 07:38:12;;;;;;;16.35;10.98;;;10.50;99.90;;;;;;5055889;28;20070;-65
2022/10/26 07:40:37;;;;;;;13.00;10.48;;;10.60;99.90;;;;;;5069305;28;20045;-65
2022/10/26 07:43:04;;;;;;;15.68;10.48;;;10.70;99.90;;;;;;5048928;28;20088;-65
2022/10/26 07:45:29;;;;;;;15.55;10.50;;;10.80;99.90;;;;;;5075195;28;20072;-65
2022/10/26 07:47:56;;;;;;;18.52;12.57;;;10.90;99.90;;;;;;5063008;28;20097;-65
2022/10/26 07:50:23;;;;;;;16.95;11.48;;;11.00;99.90;;;;;;5064072;28;20139;-65
2022/10/26 07:52:48;;;;;;;14.77;10.38;;;11.00;99.90;;;;;;5076206;28;20060;-65
2022/10/26 07:55:14;;;;;;;13.20;10.18;;;11.10;99.90;;;;;;5075454;28;20040;-65
2022/10/26 07:57:40;;;;;;;14.45;9.93;;;11.10;99.90;;;;;;5085022;28;20063;-65
2022/10/26 08:00:08;;;;;;;13.82;9.73;;;11.20;99.90;;;;;;5091996;28;20036;-65
2022/10/26 08:02:34;;;;;;;12.23;8.85;;;11.30;99.90;;;;;;5047819;28;20056;-65
2022/10/26 08:04:59;;;;;;;15.68;10.30;;;11.30;99.90;;;;;;5067419;28;20032;-66
2022/10/26 08:07:26;;;;;;;16.20;9.88;;;11.50;99.90;;;;;;5068340;28;20133;-67
2022/10/26 08:09:52;;;;;;;15.00;9.25;;;11.60;99.90;;;;;;5055468;28;20072;-67
2022/10/26 08:12:18;;;;;;;11.27;8.65;;;11.70;99.90;;;;;;5063078;28;20059;-67
2022/10/26 08:14:44;;;;;;;13.55;9.60;;;11.80;99.90;;;;;;5057625;28;20072;-67
2022/10/26 08:17:09;;;;;;;11.68;8.32;;;11.90;99.90;;;;;;5067627;28;20049;-66
2022/10/26 08:19:35;;;;;;;16.13;9.88;;;11.90;99.90;;;;;;5070796;28;20127;-67
2022/10/26 08:22:01;;;;;;;11.95;9.13;;;12.00;99.90;;;;;;5044364;28;20093;-67
2022/10/26 08:24:27;;;;;;;14.40;9.00;;;12.10;99.90;;;;;;5055368;28;20119;-67
2022/10/26 08:26:53;;;;;;;13.95;8.30;;;12.00;99.90;;;;;;5046155;28;20032;-67
2022/10/26 08:29:19;;;;;;;11.32;8.20;;;12.10;99.90;;;;;;5073592;28;20151;-67
2022/10/26 08:31:47;;;;;;;13.30;8.65;;;12.10;99.90;;;;;;5055900;28;20062;-67
2022/10/26 08:34:12;;;;;;;12.38;8.40;;;12.10;99.90;;;;;;5046611;28;20074;-67
2022/10/26 08:36:38;;;;;;;14.73;7.97;;;12.10;99.90;;;;;;5083834;28;20052;-69
2022/10/26 08:39:04;;;;;;;13.25;8.45;;;12.10;99.90;;;;;;5057529;28;20056;-66
2022/10/26 08:41:45;;;;;;;12.25;8.57;;;12.20;99.90;;;;;;5075346;28;20126;-66
2022/10/26 08:44:40;;;;;;;12.43;7.75;;;12.30;99.90;;;;;;5045829;28;20049;-66
2022/10/26 08:47:15;;;;;;;13.60;7.65;;;12.30;99.90;;;;;;5032292;28;20070;-66
2022/10/26 08:49:57;;;;;;;15.77;8.32;;;12.30;99.90;;;;;;5061645;28;20048;-68
2022/10/26 08:53:01;;;;;;;21.00;9.15;;;12.30;99.90;;;;;;5026000;28;20057;-68
2022/10/26 08:55:32;;;;;;;10.65;8.30;;;12.30;99.90;;;;;;4969146;28;20089;-68
2022/10/26 08:58:00;;;;;;;12.80;8.38;;;12.40;99.90;;;;;;4992730;28;20054;-68
2022/10/26 09:00:29;;;;;;;13.20;8.23;;;12.40;99.90;;;;;;5007735;28;20076;-68
2022/10/26 09:02:55;;;;;;;13.15;7.72;;;12.50;99.90;;;;;;4985491;28;20081;-68
2022/10/26 09:05:39;;;;;;;13.18;7.55;;;12.50;99.90;;;;;;4978423;28;20050;-68
2022/10/26 09:08:19;;;;;;;11.32;7.00;;;12.60;99.90;;;;;;4962502;28;20189;-68
2022/10/26 09:11:22;;;;;;;11.77;6.28;;;12.70;99.90;;;;;;5001396;28;20042;-68
2022/10/26 09:14:06;;;;;;;7.38;5.50;;;12.80;99.90;;;;;;4970652;28;20059;-68
2022/10/26 09:16:37;;;;;;;7.65;5.18;;;13.00;99.90;;;;;;5007846;28;20057;-66
2022/10/26 09:19:26;;;;;;;7.15;4.68;;;13.20;99.90;;;;;;5005496;28;20096;-67
2022/10/26 09:22:12;;;;;;;7.82;4.10;;;13.30;99.90;;;;;;5015349;28;20117;-67
2022/10/26 09:24:46;;;;;;;5.75;4.15;;;13.50;99.90;;;;;;4982463;28;20074;-70
2022/10/26 09:27:23;;;;;;;7.65;4.22;;;13.70;99.90;;;;;;4980352;28;20060;-67
2022/10/26 09:29:51;;;;;;;6.20;3.65;;;13.90;99.90;;;;;;4981866;28;20042;-67
2022/10/26 09:32:30;;;;;;;6.35;3.60;;;14.10;99.90;;;;;;5014835;28;20469;-66
2022/10/26 09:35:03;;;;;;;6.80;3.30;;;14.30;99.90;;;;;;5045073;28;20086;-67
2022/10/26 09:37:36;;;;;;;7.88;3.63;;;14.50;99.90;;;;;;5051029;28;20041;-67
2022/10/26 09:40:33;;;;;;;5.55;3.03;;;14.60;99.90;;;;;;5062078;28;20068;-67
2022/10/26 09:43:16;;;;;;;7.38;3.28;;;14.90;99.90;;;;;;5053357;28;20080;-67
2022/10/26 09:45:48;;;;;;;6.97;3.05;;;15.10;99.90;;;;;;5051497;28;20075;-67
2022/10/26 09:48:19;;;;;;;5.78;3.10;;;15.20;99.90;;;;;;5051026;28;20575;-67
2022/10/26 09:50:48;;;;;;;7.53;3.10;;;15.30;99.90;;;;;;5061836;28;20041;-67
2022/10/26 09:53:14;;;;;;;5.83;3.17;;;15.50;99.90;;;;;;5052628;28;20069;-67
2022/10/26 09:55:44;;;;;;;7.18;3.45;;;15.60;99.90;;;;;;5045391;28;20098;-66
2022/10/26 09:58:19;;;;;;;8.50;3.38;;;15.70;99.90;;;;;;5075205;28;20049;-67
2022/10/26 10:00:45;;;;;;;6.63;3.45;;;15.90;99.90;;;;;;5067896;28;20247;-65
2022/10/26 10:03:36;;;;;;;5.25;2.97;;;16.00;99.90;;;;;;5069115;28;20460;-66
2022/10/26 10:06:17;;;;;;;5.78;3.30;;;16.10;99.90;;;;;;5052519;28;20384;-67
2022/10/26 10:09:02;;;;;;;6.90;3.50;;;16.20;99.90;;;;;;5067216;28;20071;-66
2022/10/26 10:11:41;;;;;;;7.53;3.75;;;16.10;99.90;;;;;;5061859;28;20052;-66
2022/10/26 10:14:12;;;;;;;8.35;4.18;;;16.10;99.90;;;;;;5055715;28;20074;-66
2022/10/26 10:16:38;;;;;;;7.82;3.05;;;16.00;99.90;;;;;;5061384;28;20067;-65
2022/10/26 10:19:04;;;;;;;7.18;3.60;;;15.90;99.90;;;;;;5054817;28;20709;-66
2022/10/26 10:21:39;;;;;;;8.02;3.60;;;15.80;99.90;;;;;;5083086;28;20047;-66
2022/10/26 10:24:34;;;;;;;5.38;3.15;;;15.80;99.90;;;;;;5028131;28;20079;-66
2022/10/26 10:27:16;;;;;;;6.85;3.53;;;15.90;99.90;;;;;;5095567;28;20036;-66
2022/10/26 10:29:50;;;;;;;6.30;3.28;;;16.10;99.90;;;;;;5067484;28;20059;-66
2022/10/26 10:32:21;;;;;;;8.48;3.47;;;16.30;99.90;;;;;;5073823;28;20044;-66
2022/10/26 10:34:48;;;;;;;9.38;3.33;;;16.30;99.90;;;;;;5055583;28;20105;-66
2022/10/26 10:37:37;;;;;;;8.88;3.75;;;16.50;99.90;;;;;;5063238;28;20060;-66
2022/10/26 10:40:25;;;;;;;9.70;4.15;;;16.50;99.90;;;;;;5066490;28;20105;-66
2022/10/26 10:42:54;;;;;;;5.85;3.30;;;16.60;99.90;;;;;;5046632;28;20056;-66
2022/10/26 10:45:26;;;;;;;8.40;4.00;;;16.70;99.90;;;;;;5035228;28;20090;-66
2022/10/26 10:48:03;;;;;;;6.35;3.22;;;16.80;99.90;;;;;;5080379;28;20189;-66
2022/10/26 10:50:30;;;;;;;6.88;3.42;;;16.70;99.90;;;;;;5061258;28;20048;-65
2022/10/26 10:53:33;;;;;;;7.25;3.10;;;16.80;99.90;;;;;;5068757;28;20048;-66
2022/10/26 10:56:08;;;;;;;5.45;3.10;;;16.90;99.90;;;;;;5035987;28;20060;-66
2022/10/26 10:58:48;;;;;;;6.07;3.22;;;16.80;99.90;;;;;;5057341;28;20060;-66
2022/10/26 11:01:20;;;;;;;7.65;3.40;;;16.90;99.90;;;;;;5061998;28;20098;-66
2022/10/26 11:04:17;;;;;;;5.00;3.35;;;16.90;99.90;;;;;;5068338;28;20294;-65
2022/10/26 11:06:45;;;;;;;10.68;3.63;;;17.00;99.90;;;;;;5062154;28;20067;-65
2022/10/26 11:09:15;;;;;;;8.20;2.92;;;17.10;99.90;;;;;;5071594;28;20154;-66
2022/10/26 11:11:47;;;;;;;7.47;2.55;;;17.10;99.90;;;;;;5080075;28;20389;-65
2022/10/26 11:14:15;;;;;;;7.95;3.67;;;17.30;99.90;;;;;;5051077;28;20196;-66
2022/10/26 11:17:16;;;;;;;5.55;3.40;;;17.40;99.90;;;;;;5062240;28;20444;-66
2022/10/26 11:19:56;;;;;;;9.13;3.20;;;17.60;99.90;;;;;;4976952;28;20062;-66
2022/10/26 11:22:27;;;;;;;;;;;17.70;99.90;;;;;;4998341;28;20054;-66
2022/10/26 11:25:27;;;;;;;6.57;2.35;;;17.90;99.90;;;;;;5006249;28;19965;-66
2022/10/26 11:27:59;;;;;;;11.80;3.10;;;18.00;99.90;;;;;;4984617;28;20059;-66
2022/10/26 11:30:29;;;;;;;6.07;2.63;;;18.20;99.90;;;;;;5010357;28;20058;-66
2022/10/26 11:33:07;;;;;;;9.20;3.67;;;18.30;99.90;;;;;;4967448;28;20474;-66
2022/10/26 11:35:43;;;;;;;8.80;3.38;;;18.30;99.90;;;;;;5010014;28;20127;-66
2022/10/26 11:38:31;;;;;;;6.03;2.75;;;18.30;99.90;;;;;;4978218;28;20051;-66
2022/10/26 11:41:00;;;;;;;11.38;3.60;;;18.60;99.90;;;;;;4992749;28;20042;-66
2022/10/26 11:43:43;;;;;;;5.43;2.97;;;18.60;99.90;;;;;;4980338;28;20471;-66
2022/10/26 11:46:27;;;;;;;9.35;3.40;;;18.60;99.90;;;;;;4970662;28;20058;-66
2022/10/26 11:49:04;;;;;;;6.78;3.70;;;18.60;99.90;;;;;;4980786;28;20058;-66
2022/10/26 11:51:32;;;;;;;7.60;3.55;;;18.60;99.90;;;;;;4990837;28;20090;-66
2022/10/26 11:54:03;;;;;;;7.68;3.70;;;18.50;99.90;;;;;;4995921;28;20385;-66
2022/10/26 11:56:37;;;;;;;8.93;3.30;;;18.60;99.90;;;;;;5045169;28;20060;-66
2022/10/26 11:59:03;;;;;;;7.20;3.22;;;18.60;99.90;;;;;;5077069;28;20079;-66
2022/10/26 12:01:30;;;;;;;8.68;3.88;;;18.60;99.90;;;;;;5081720;28;20086;-66
2022/10/26 12:03:58;;;;;;;8.05;3.67;;;18.60;99.90;;;;;;5079769;28;20045;-66
2022/10/26 12:06:28;;;;;;;6.93;3.75;;;18.80;99.90;;;;;;5086681;28;20044;-67
2022/10/26 12:09:06;;;;;;;7.80;3.75;;;18.90;99.90;;;;;;5074658;28;20044;-67
2022/10/26 12:11:36;;;;;;;10.05;3.53;;;19.00;99.90;;;;;;5063007;28;20121;-65
2022/10/26 12:14:20;;;;;;;6.20;2.80;;;18.90;99.90;;;;;;5070420;28;20056;-66
2022/10/26 12:17:10;;;;;;;8.13;3.30;;;19.00;99.90;;;;;;5063209;28;20086;-66
2022/10/26 12:19:41;;;;;;;;;;;19.20;99.90;;;;;;5045994;28;20044;-66
2022/10/26 12:22:12;;;;;;;6.38;3.10;;;19.20;99.90;;;;;;5057465;28;19932;-66
2022/10/26 12:24:43;;;;;;;7.72;2.92;;;19.30;99.90;;;;;;5064417;28;20137;-66
2022/10/26 12:27:48;;;;;;;6.18;3.40;;;19.40;99.90;;;;;;5058830;28;20558;-66
2022/10/26 12:30:16;;;;;;;5.30;3.13;;;19.50;99.90;;;;;;5067961;28;20582;-66
2022/10/26 12:32:46;;;;;;;8.63;3.85;;;19.60;99.90;;;;;;5097812;28;20067;-66
2022/10/26 12:35:36;;;;;;;8.18;3.47;;;19.40;99.90;;;;;;5065462;28;20090;-67
2022/10/26 12:38:20;;;;;;;;;;;19.20;99.90;;;;;;5061374;28;20048;-67
2022/10/26 12:40:46;;;;;;;7.00;3.50;;;19.10;99.90;;;;;;5061429;28;19996;-66
2022/10/26 12:43:14;;;;;;;8.50;3.17;;;19.10;99.90;;;;;;5066172;28;20049;-66
2022/10/26 12:45:42;;;;;;;13.30;4.07;;;19.30;99.90;;;;;;5067946;28;20052;-66
2022/10/26 12:48:40;;;;;;;6.55;3.10;;;19.70;99.90;;;;;;5068103;28;20079;-67
2022/10/26 12:51:32;;;;;;;12.10;3.70;;;19.90;99.90;;;;;;5068823;28;20053;-66
2022/10/26 12:54:03;;;;;;;6.72;3.35;;;20.50;99.90;;;;;;4993016;28;20077;-66
2022/10/26 12:56:49;;;;;;;9.32;3.70;;;20.80;99.90;;;;;;5003187;28;20081;-66
2022/10/26 12:59:40;;;;;;;7.32;3.17;;;21.20;99.90;;;;;;4995433;28;20058;-66
2022/10/26 13:02:37;;;;;;;9.63;3.13;;;21.40;99.90;;;;;;5015119;28;20046;-65